createdAt,value
2018-10-21T00:00:53.085Z,0.00
2018-10-21T00:01:53.061Z,0.00
2018-10-21T00:02:53.078Z,0.00
2018-10-21T00:03:53.030Z,0.00
2018-10-21T00:04:52.998Z,0.00
2018-10-21T00:05:52.983Z,0.00
2018-10-21T00:06:52.956Z,0.00
2018-10-21T00:07:52.936Z,0.00
2018-10-21T00:08:52.943Z,0.00
2018-10-21T00:09:52.951Z,0.00
2018-10-21T00:10:52.881Z,0.00
2018-10-21T00:11:52.858Z,0.00
2018-10-21T00:12:52.882Z,0.00
2018-10-21T00:13:52.819Z,0.00
2018-10-21T00:14:52.815Z,0.00
2018-10-21T00:15:52.780Z,0.00
2018-10-21T00:16:52.760Z,0.00
2018-10-21T00:17:52.739Z,0.00
2018-10-21T00:18:52.720Z,0.00
2018-10-21T00:19:52.713Z,0.00
2018-10-21T00:20:52.681Z,0.00
2018-10-21T00:21:52.659Z,0.00
2018-10-21T00:22:52.639Z,0.00
2018-10-21T00:23:52.620Z,0.00
2018-10-21T00:24:52.617Z,0.00
2018-10-21T00:25:52.596Z,0.00
2018-10-21T00:26:52.556Z,0.00
2018-10-21T00:27:52.541Z,0.00
2018-10-21T00:28:52.515Z,0.00
2018-10-21T00:29:52.507Z,0.00
2018-10-21T00:30:52.480Z,0.00
2018-10-21T00:31:52.481Z,0.00
2018-10-21T00:32:52.436Z,0.00
2018-10-21T00:33:52.421Z,0.00
2018-10-21T00:34:52.396Z,0.00
2018-10-21T00:35:52.384Z,0.00
2018-10-21T00:36:52.376Z,0.00
2018-10-21T00:37:52.339Z,0.00
2018-10-21T00:38:52.318Z,0.00
2018-10-21T00:39:52.301Z,0.00
2018-10-21T00:40:52.283Z,0.00
2018-10-21T00:41:52.275Z,0.00
2018-10-21T00:42:52.244Z,0.00
2018-10-21T00:43:52.248Z,0.00
2018-10-21T00:44:52.195Z,0.00
2018-10-21T00:45:52.177Z,0.00
2018-10-21T00:46:52.177Z,0.00
2018-10-21T00:47:52.138Z,0.00
2018-10-21T00:48:52.130Z,0.00
2018-10-21T00:49:52.097Z,0.00
2018-10-21T00:50:52.080Z,0.00
2018-10-21T00:51:52.055Z,0.00
2018-10-21T00:52:52.037Z,0.00
2018-10-21T00:53:52.015Z,0.00
2018-10-21T00:54:52.020Z,0.00
2018-10-21T00:55:51.975Z,0.00
2018-10-21T00:56:51.953Z,0.00
2018-10-21T00:57:51.935Z,0.00
2018-10-21T00:58:51.915Z,0.00
2018-10-21T00:59:51.910Z,0.00
2018-10-21T01:00:51.875Z,0.00
2018-10-21T01:01:51.872Z,0.00
2018-10-21T01:02:51.832Z,0.00
2018-10-21T01:03:51.816Z,0.00
2018-10-21T01:04:51.809Z,0.00
2018-10-21T01:05:51.789Z,0.00
2018-10-21T01:06:51.752Z,0.00
2018-10-21T01:07:51.751Z,0.00
2018-10-21T01:08:51.712Z,0.00
2018-10-21T01:09:51.692Z,0.00
2018-10-21T01:10:51.688Z,0.00
2018-10-21T01:11:51.652Z,0.00
2018-10-21T01:12:51.623Z,0.00
2018-10-21T01:13:51.633Z,0.00
2018-10-21T01:14:51.605Z,0.00
2018-10-21T01:15:51.574Z,0.00
2018-10-21T01:16:51.550Z,0.00
2018-10-21T01:17:51.579Z,0.00
2018-10-21T01:18:51.527Z,0.00
2018-10-21T01:19:51.499Z,0.00
2018-10-21T01:20:51.472Z,0.00
2018-10-21T01:21:51.454Z,0.00
2018-10-21T01:22:51.430Z,0.00
2018-10-21T01:23:51.412Z,0.00
2018-10-21T01:24:51.409Z,0.00
2018-10-21T01:25:51.368Z,0.00
2018-10-21T01:26:51.348Z,0.00
2018-10-21T01:27:51.335Z,0.00
2018-10-21T01:28:51.310Z,0.00
2018-10-21T01:29:51.312Z,0.00
2018-10-21T01:30:51.272Z,0.00
2018-10-21T01:31:51.250Z,0.00
2018-10-21T01:32:51.271Z,0.00
2018-10-21T01:33:51.208Z,0.00
2018-10-21T01:34:51.187Z,0.00
2018-10-21T01:35:51.165Z,0.00
2018-10-21T01:36:51.186Z,0.00
2018-10-21T01:37:51.138Z,0.00
2018-10-21T01:38:51.126Z,0.00
2018-10-21T01:39:51.153Z,0.00
2018-10-21T01:40:51.078Z,0.00
2018-10-21T01:41:51.048Z,0.00
2018-10-21T01:42:51.044Z,0.00
2018-10-21T01:43:51.010Z,0.00
2018-10-21T01:44:50.980Z,0.00
2018-10-21T01:45:50.967Z,0.00
2018-10-21T01:46:50.948Z,0.00
2018-10-21T01:47:50.925Z,0.00
2018-10-21T01:48:50.917Z,0.00
2018-10-21T01:49:50.886Z,0.00
2018-10-21T01:50:50.866Z,0.00
2018-10-21T01:51:50.844Z,0.00
2018-10-21T01:52:50.828Z,0.00
2018-10-21T01:53:50.817Z,0.00
2018-10-21T01:54:50.780Z,0.00
2018-10-21T01:55:50.760Z,0.00
2018-10-21T01:56:50.743Z,0.00
2018-10-21T01:57:50.720Z,0.00
2018-10-21T01:58:50.701Z,0.00
2018-10-21T01:59:50.699Z,0.00
2018-10-21T02:00:50.661Z,0.00
2018-10-21T02:01:50.661Z,0.00
2018-10-21T02:02:50.616Z,0.00
2018-10-21T02:03:50.598Z,0.00
2018-10-21T02:04:50.581Z,0.00
2018-10-21T02:05:50.562Z,0.00
2018-10-21T02:06:50.537Z,0.00
2018-10-21T02:07:50.532Z,0.00
2018-10-21T02:08:50.493Z,0.00
2018-10-21T02:09:50.487Z,0.00
2018-10-21T02:10:50.460Z,0.00
2018-10-21T02:11:50.438Z,0.00
2018-10-21T02:12:50.435Z,0.00
2018-10-21T02:13:50.400Z,0.00
2018-10-21T02:14:50.395Z,0.00
2018-10-21T02:15:50.358Z,0.00
2018-10-21T02:16:50.336Z,0.00
2018-10-21T02:17:50.318Z,0.00
2018-10-21T02:18:50.299Z,0.00
2018-10-21T02:19:50.276Z,0.00
2018-10-21T02:20:50.278Z,0.00
2018-10-21T02:21:50.235Z,0.00
2018-10-21T02:22:50.217Z,0.00
2018-10-21T02:23:50.212Z,0.00
2018-10-21T02:24:50.167Z,0.00
2018-10-21T02:25:50.152Z,0.00
2018-10-21T02:26:50.155Z,0.00
2018-10-21T02:27:50.115Z,0.00
2018-10-21T02:28:50.092Z,0.00
2018-10-21T02:29:50.096Z,0.00
2018-10-21T02:30:50.069Z,0.00
2018-10-21T02:31:50.035Z,0.00
2018-10-21T02:32:50.019Z,0.00
2018-10-21T02:33:49.992Z,0.00
2018-10-21T02:34:49.969Z,0.00
2018-10-21T02:35:49.954Z,0.00
2018-10-21T02:36:49.946Z,0.00
2018-10-21T02:37:49.909Z,0.00
2018-10-21T02:38:49.889Z,0.00
2018-10-21T02:39:49.866Z,0.00
2018-10-21T02:40:49.844Z,0.00
2018-10-21T02:41:49.844Z,0.00
2018-10-21T02:42:49.807Z,0.00
2018-10-21T02:43:49.789Z,0.00
2018-10-21T02:44:49.767Z,0.00
2018-10-21T02:45:49.753Z,0.00
2018-10-21T02:46:49.760Z,0.00
2018-10-21T02:47:49.728Z,0.00
2018-10-21T02:48:49.683Z,0.00
2018-10-21T02:49:49.660Z,0.00
2018-10-21T02:50:49.646Z,0.00
2018-10-21T02:51:49.624Z,0.00
2018-10-21T02:52:49.619Z,0.00
2018-10-21T02:53:49.583Z,0.00
2018-10-21T02:54:49.559Z,0.00
2018-10-21T02:55:49.544Z,0.00
2018-10-21T02:56:49.521Z,0.00
2018-10-21T02:57:49.517Z,0.00
2018-10-21T02:58:49.494Z,0.00
2018-10-21T02:59:49.477Z,0.00
2018-10-21T03:00:49.441Z,0.00
2018-10-21T03:01:49.417Z,0.00
2018-10-21T03:02:49.401Z,0.00
2018-10-21T03:03:49.378Z,0.00
2018-10-21T03:04:49.373Z,0.00
2018-10-21T03:05:49.343Z,0.00
2018-10-21T03:06:49.318Z,0.00
2018-10-21T03:07:49.314Z,0.00
2018-10-21T03:08:49.280Z,0.00
2018-10-21T03:09:49.258Z,0.00
2018-10-21T03:10:49.245Z,0.00
2018-10-21T03:11:49.219Z,0.00
2018-10-21T03:12:49.213Z,0.00
2018-10-21T03:13:49.172Z,0.00
2018-10-21T03:14:49.171Z,0.00
2018-10-21T03:15:49.132Z,0.00
2018-10-21T03:16:49.113Z,0.00
2018-10-21T03:17:49.089Z,0.00
2018-10-21T03:18:49.071Z,0.00
2018-10-21T03:19:49.066Z,0.00
2018-10-21T03:20:49.033Z,0.00
2018-10-21T03:21:49.009Z,0.00
2018-10-21T03:22:49.012Z,0.00
2018-10-21T03:23:48.968Z,0.00
2018-10-21T03:24:48.946Z,0.00
2018-10-21T03:25:48.942Z,0.00
2018-10-21T03:26:49.549Z,0.00
2018-10-21T03:27:48.890Z,0.00
2018-10-21T03:28:48.870Z,0.00
2018-10-21T03:29:48.846Z,0.00
2018-10-21T03:30:48.827Z,0.00
2018-10-21T03:31:48.832Z,0.00
2018-10-21T03:32:48.804Z,0.00
2018-10-21T03:33:48.840Z,0.00
2018-10-21T03:34:48.743Z,0.00
2018-10-21T03:35:48.721Z,0.00
2018-10-21T03:36:48.702Z,0.00
2018-10-21T03:37:48.695Z,0.00
2018-10-21T03:38:48.661Z,0.00
2018-10-21T03:39:48.634Z,0.00
2018-10-21T03:40:48.616Z,0.00
2018-10-21T03:41:48.604Z,0.00
2018-10-21T03:42:48.591Z,0.00
2018-10-21T03:43:48.555Z,0.00
2018-10-21T03:44:48.540Z,0.00
2018-10-21T03:45:48.514Z,0.00
2018-10-21T03:46:48.493Z,0.00
2018-10-21T03:47:48.493Z,0.00
2018-10-21T03:48:48.451Z,0.00
2018-10-21T03:49:48.436Z,0.00
2018-10-21T03:50:48.411Z,0.00
2018-10-21T03:51:48.389Z,0.00
2018-10-21T03:52:48.380Z,0.00
2018-10-21T03:53:48.368Z,0.00
2018-10-21T03:54:48.332Z,0.00
2018-10-21T03:55:48.309Z,0.00
2018-10-21T03:56:48.285Z,0.00
2018-10-21T03:57:48.266Z,0.00
2018-10-21T03:58:48.266Z,0.00
2018-10-21T03:59:48.247Z,0.00
2018-10-21T04:00:48.213Z,0.00
2018-10-21T04:01:48.185Z,0.00
2018-10-21T04:02:48.166Z,0.00
2018-10-21T04:03:48.147Z,0.00
2018-10-21T04:04:48.147Z,0.00
2018-10-21T04:05:48.104Z,0.00
2018-10-21T04:06:48.085Z,0.00
2018-10-21T04:07:48.070Z,0.00
2018-10-21T04:08:48.040Z,0.00
2018-10-21T04:09:48.021Z,0.00
2018-10-21T04:10:48.025Z,0.00
2018-10-21T04:11:47.979Z,0.00
2018-10-21T04:12:47.961Z,0.00
2018-10-21T04:13:47.939Z,0.00
2018-10-21T04:14:47.947Z,0.00
2018-10-21T04:15:47.903Z,0.00
2018-10-21T04:16:47.873Z,0.00
2018-10-21T04:17:47.858Z,0.00
2018-10-21T04:18:47.836Z,0.00
2018-10-21T04:19:47.818Z,0.00
2018-10-21T04:20:47.805Z,0.00
2018-10-21T04:21:47.778Z,0.00
2018-10-21T04:22:47.754Z,0.00
2018-10-21T04:23:47.734Z,0.00
2018-10-21T04:24:47.712Z,0.00
2018-10-21T04:25:47.710Z,0.00
2018-10-21T04:26:47.673Z,0.00
2018-10-21T04:27:47.652Z,0.00
2018-10-21T04:28:47.630Z,0.00
2018-10-21T04:29:47.611Z,0.00
2018-10-21T04:30:47.600Z,0.00
2018-10-21T04:31:47.567Z,0.00
2018-10-21T04:32:47.545Z,0.00
2018-10-21T04:33:47.529Z,0.00
2018-10-21T04:34:47.500Z,0.00
2018-10-21T04:35:47.503Z,0.00
2018-10-21T04:36:47.465Z,0.00
2018-10-21T04:37:47.445Z,0.00
2018-10-21T04:38:47.426Z,0.00
2018-10-21T04:39:47.420Z,0.00
2018-10-21T04:40:47.382Z,0.00
2018-10-21T04:41:47.360Z,0.00
2018-10-21T04:42:47.354Z,0.00
2018-10-21T04:43:47.337Z,0.00
2018-10-21T04:44:47.299Z,0.00
2018-10-21T04:45:47.280Z,0.00
2018-10-21T04:46:47.375Z,0.00
2018-10-21T04:47:47.236Z,0.00
2018-10-21T04:48:47.232Z,0.00
2018-10-21T04:49:47.194Z,0.00
2018-10-21T04:50:47.178Z,0.00
2018-10-21T04:51:47.174Z,0.00
2018-10-21T04:52:47.131Z,0.00
2018-10-21T04:53:47.134Z,0.00
2018-10-21T04:54:47.102Z,0.00
2018-10-21T04:55:47.081Z,0.00
2018-10-21T04:56:47.078Z,0.00
2018-10-21T04:57:47.035Z,0.00
2018-10-21T04:58:47.029Z,0.00
2018-10-21T04:59:46.991Z,0.00
2018-10-21T05:00:47.016Z,0.00
2018-10-21T05:01:46.946Z,0.00
2018-10-21T05:02:46.949Z,0.00
2018-10-21T05:03:46.910Z,0.00
2018-10-21T05:04:46.888Z,0.00
2018-10-21T05:05:46.869Z,0.00
2018-10-21T05:06:46.848Z,0.00
2018-10-21T05:07:46.829Z,0.00
2018-10-21T05:08:46.823Z,0.00
2018-10-21T05:09:48.516Z,0.00
2018-10-21T05:10:46.767Z,0.00
2018-10-21T05:11:46.765Z,0.00
2018-10-21T05:12:46.723Z,0.00
2018-10-21T05:13:46.728Z,0.00
2018-10-21T05:14:46.684Z,0.00
2018-10-21T05:15:46.664Z,0.00
2018-10-21T05:16:46.642Z,0.00
2018-10-21T05:17:46.623Z,0.00
2018-10-21T05:18:46.604Z,0.00
2018-10-21T05:19:46.597Z,0.00
2018-10-21T05:20:46.580Z,0.00
2018-10-21T05:21:46.540Z,0.00
2018-10-21T05:22:46.522Z,0.00
2018-10-21T05:23:46.519Z,0.00
2018-10-21T05:24:46.476Z,0.00
2018-10-21T05:25:46.500Z,0.00
2018-10-21T05:26:46.444Z,0.00
2018-10-21T05:27:46.416Z,0.00
2018-10-21T05:28:46.393Z,0.00
2018-10-21T05:29:46.391Z,0.00
2018-10-21T05:30:46.362Z,0.00
2018-10-21T05:31:46.341Z,0.00
2018-10-21T05:32:46.329Z,0.00
2018-10-21T05:33:46.295Z,0.00
2018-10-21T05:34:46.271Z,0.00
2018-10-21T05:35:46.265Z,0.00
2018-10-21T05:36:46.231Z,0.00
2018-10-21T05:37:46.260Z,0.00
2018-10-21T05:38:46.200Z,4.00
2018-10-21T05:39:46.166Z,0.00
2018-10-21T05:40:46.148Z,0.00
2018-10-21T05:41:46.145Z,4.00
2018-10-21T05:42:46.106Z,0.00
2018-10-21T05:43:46.100Z,4.00
2018-10-21T05:44:46.064Z,4.00
2018-10-21T05:45:48.026Z,8.00
2018-10-21T05:46:46.069Z,4.00
2018-10-21T05:47:46.001Z,8.00
2018-10-21T05:48:46.094Z,8.00
2018-10-21T05:49:45.966Z,8.00
2018-10-21T05:50:45.943Z,12.00
2018-10-21T05:51:45.938Z,12.00
2018-10-21T05:52:45.911Z,16.00
2018-10-21T05:53:45.878Z,16.00
2018-10-21T05:54:45.855Z,20.00
2018-10-21T05:55:45.848Z,24.00
2018-10-21T05:56:45.840Z,28.00
2018-10-21T05:57:45.837Z,32.00
2018-10-21T05:58:45.780Z,36.00
2018-10-21T05:59:45.766Z,40.00
2018-10-21T06:00:45.736Z,44.00
2018-10-21T06:01:45.733Z,52.00
2018-10-21T06:02:45.745Z,56.00
2018-10-21T06:03:45.676Z,64.00
2018-10-21T06:04:47.523Z,68.00
2018-10-21T06:05:45.634Z,72.00
2018-10-21T06:06:45.626Z,80.00
2018-10-21T06:07:45.591Z,88.00
2018-10-21T06:08:45.570Z,96.00
2018-10-21T06:09:45.554Z,104.00
2018-10-21T06:10:45.529Z,112.00
2018-10-21T06:11:45.542Z,120.00
2018-10-21T06:12:45.503Z,128.00
2018-10-21T06:13:45.480Z,140.00
2018-10-21T06:14:45.450Z,148.00
2018-10-21T06:15:45.444Z,156.00
2018-10-21T06:16:45.409Z,168.00
2018-10-21T06:17:45.418Z,176.00
2018-10-21T06:18:45.368Z,188.00
2018-10-21T06:19:45.351Z,200.00
2018-10-21T06:20:45.330Z,208.00
2018-10-21T06:21:45.309Z,224.00
2018-10-21T06:22:45.291Z,232.00
2018-10-21T06:23:45.344Z,244.00
2018-10-21T06:24:45.243Z,256.00
2018-10-21T06:25:48.525Z,268.00
2018-10-21T06:26:46.034Z,280.00
2018-10-21T06:27:45.195Z,296.00
2018-10-21T06:28:45.165Z,304.00
2018-10-21T06:29:45.166Z,320.00
2018-10-21T06:30:45.122Z,328.00
2018-10-21T06:31:45.104Z,340.00
2018-10-21T06:32:45.100Z,356.00
2018-10-21T06:33:45.127Z,372.00
2018-10-21T06:34:45.560Z,384.00
2018-10-21T06:35:45.035Z,392.00
2018-10-21T06:36:45.081Z,408.00
2018-10-21T06:37:45.099Z,420.00
2018-10-21T06:38:48.536Z,432.00
2018-10-21T06:39:44.939Z,444.00
2018-10-21T06:40:44.920Z,452.00
2018-10-21T06:41:44.895Z,464.00
2018-10-21T06:42:44.893Z,472.00
2018-10-21T06:43:44.859Z,488.00
2018-10-21T06:44:44.834Z,496.00
2018-10-21T06:45:44.843Z,512.00
2018-10-21T06:46:44.815Z,520.00
2018-10-21T06:47:44.777Z,532.00
2018-10-21T06:48:44.753Z,544.00
2018-10-21T06:49:44.781Z,552.00
2018-10-21T06:50:44.712Z,564.00
2018-10-21T06:51:44.698Z,576.00
2018-10-21T06:52:44.689Z,584.00
2018-10-21T06:53:44.647Z,592.00
2018-10-21T06:54:44.634Z,604.00
2018-10-21T06:55:44.610Z,608.00
2018-10-21T06:56:44.724Z,620.00
2018-10-21T06:57:44.670Z,628.00
2018-10-21T06:58:44.559Z,632.00
2018-10-21T06:59:44.562Z,640.00
2018-10-21T07:00:44.540Z,644.00
2018-10-21T07:01:44.491Z,648.00
2018-10-21T07:02:44.487Z,660.00
2018-10-21T07:03:44.454Z,664.00
2018-10-21T07:04:44.485Z,672.00
2018-10-21T07:05:44.423Z,680.00
2018-10-21T07:06:44.392Z,688.00
2018-10-21T07:09:26.504Z,696.00
2018-10-21T07:10:26.508Z,708.00
2018-10-21T07:11:26.454Z,716.00
2018-10-21T07:12:26.439Z,724.00
2018-10-21T07:13:26.431Z,724.00
2018-10-21T07:14:26.404Z,732.00
2018-10-21T07:15:26.431Z,740.00
2018-10-21T07:16:26.377Z,748.00
2018-10-21T07:17:26.336Z,752.00
2018-10-21T07:18:26.343Z,760.00
2018-10-21T07:19:26.304Z,768.00
2018-10-21T07:20:26.283Z,772.00
2018-10-21T07:21:26.272Z,780.00
2018-10-21T07:22:26.235Z,784.00
2018-10-21T07:23:26.214Z,792.00
2018-10-21T07:24:29.039Z,804.00
2018-10-21T07:25:26.173Z,808.00
2018-10-21T07:26:26.184Z,816.00
2018-10-21T07:27:26.142Z,824.00
2018-10-21T07:28:26.161Z,836.00
2018-10-21T07:29:26.110Z,844.00
2018-10-21T07:30:26.079Z,860.00
2018-10-21T07:31:26.068Z,868.00
2018-10-21T07:32:26.053Z,876.00
2018-10-21T07:33:26.018Z,880.00
2018-10-21T07:34:25.996Z,888.00
2018-10-21T07:35:25.983Z,896.00
2018-10-21T07:36:26.023Z,904.00
2018-10-21T07:37:25.950Z,916.00
2018-10-21T07:38:25.918Z,924.00
2018-10-21T07:39:25.891Z,940.00
2018-10-21T07:40:25.875Z,948.00
2018-10-21T07:41:25.871Z,960.00
2018-10-21T07:42:25.830Z,972.00
2018-10-21T07:43:25.825Z,980.00
2018-10-21T07:44:25.800Z,984.00
2018-10-21T07:45:25.769Z,996.00
2018-10-21T07:46:25.765Z,1004.00
2018-10-21T07:47:25.753Z,1008.00
2018-10-21T07:48:25.704Z,1016.00
2018-10-21T07:49:25.689Z,1016.00
2018-10-21T07:50:25.665Z,1032.00
2018-10-21T07:51:25.651Z,1036.00
2018-10-21T07:52:25.631Z,1048.00
2018-10-21T07:53:25.628Z,1060.00
2018-10-21T07:54:25.590Z,1064.00
2018-10-21T07:55:25.641Z,1068.00
2018-10-21T07:56:25.550Z,1076.00
2018-10-21T07:57:26.037Z,1076.00
2018-10-21T07:58:25.527Z,1084.00
2018-10-21T07:59:25.490Z,1084.00
2018-10-21T08:00:25.479Z,1084.00
2018-10-21T08:01:25.510Z,1092.00
2018-10-21T08:02:25.431Z,1104.00
2018-10-21T08:03:25.440Z,1108.00
2018-10-21T08:04:25.397Z,1120.00
2018-10-21T08:05:25.376Z,1132.00
2018-10-21T08:06:25.356Z,1148.00
2018-10-21T08:07:25.342Z,1164.00
2018-10-21T08:08:25.334Z,1172.00
2018-10-21T08:09:25.297Z,1180.00
2018-10-21T08:10:25.277Z,1180.00
2018-10-21T08:11:25.260Z,1184.00
2018-10-21T08:12:25.238Z,1188.00
2018-10-21T08:13:25.230Z,1192.00
2018-10-21T08:14:25.230Z,1192.00
2018-10-21T08:15:25.179Z,1192.00
2018-10-21T08:16:25.168Z,1192.00
2018-10-21T08:17:25.141Z,1188.00
2018-10-21T08:18:25.267Z,1200.00
2018-10-21T08:19:25.106Z,1212.00
2018-10-21T08:20:25.096Z,1224.00
2018-10-21T08:21:25.067Z,1236.00
2018-10-21T08:22:25.043Z,1244.00
2018-10-21T08:23:25.026Z,1256.00
2018-10-21T08:24:25.003Z,1264.00
2018-10-21T08:25:25.000Z,1272.00
2018-10-21T08:26:24.989Z,1288.00
2018-10-21T08:27:25.028Z,1288.00
2018-10-21T08:28:24.921Z,1288.00
2018-10-21T08:29:24.923Z,1296.00
2018-10-21T08:32:11.009Z,1308.00
2018-10-21T08:33:10.996Z,1316.00
2018-10-21T08:34:11.033Z,1320.00
2018-10-21T08:35:10.952Z,1324.00
2018-10-21T08:36:10.930Z,1316.00
2018-10-21T08:37:10.916Z,1324.00
2018-10-21T08:38:10.890Z,1336.00
2018-10-21T08:39:10.872Z,1332.00
2018-10-21T08:40:10.938Z,1340.00
2018-10-21T08:41:10.851Z,1348.00
2018-10-21T08:42:10.814Z,1368.00
2018-10-21T08:43:10.814Z,1372.00
2018-10-21T08:44:10.789Z,1384.00
2018-10-21T08:45:10.793Z,1380.00
2018-10-21T08:46:10.828Z,1400.00
2018-10-21T08:47:10.722Z,1408.00
2018-10-21T08:48:10.723Z,1424.00
2018-10-21T08:49:10.735Z,1428.00
2018-10-21T08:50:10.673Z,1440.00
2018-10-21T08:51:11.544Z,1440.00
2018-10-21T08:52:10.711Z,1444.00
2018-10-21T08:53:10.616Z,1468.00
2018-10-21T08:54:10.588Z,1456.00
2018-10-21T08:55:10.659Z,1460.00
2018-10-21T08:56:10.549Z,1448.00
2018-10-21T08:57:10.528Z,1452.00
2018-10-21T08:58:10.554Z,1464.00
2018-10-21T08:59:10.517Z,1456.00
2018-10-21T09:00:10.495Z,1472.00
2018-10-21T09:01:10.509Z,1476.00
2018-10-21T09:02:10.480Z,1480.00
2018-10-21T09:03:10.435Z,1496.00
2018-10-21T09:04:10.455Z,1500.00
2018-10-21T09:05:10.392Z,1504.00
2018-10-21T09:06:10.361Z,1504.00
2018-10-21T09:07:10.400Z,1528.00
2018-10-21T09:08:10.325Z,1536.00
2018-10-21T09:09:10.323Z,1544.00
2018-10-21T09:10:10.333Z,1532.00
2018-10-21T09:11:10.266Z,1540.00
2018-10-21T09:12:10.263Z,1556.00
2018-10-21T09:13:10.289Z,1572.00
2018-10-21T09:14:10.226Z,1556.00
2018-10-21T09:15:10.320Z,1576.00
2018-10-21T09:16:10.230Z,1568.00
2018-10-21T09:17:10.156Z,1556.00
2018-10-21T09:18:10.138Z,1576.00
2018-10-21T09:19:10.221Z,1576.00
2018-10-21T09:20:10.114Z,1600.00
2018-10-21T09:21:10.080Z,1580.00
2018-10-21T09:22:10.145Z,1592.00
2018-10-21T09:23:10.039Z,1584.00
2018-10-21T09:24:10.028Z,1596.00
2018-10-21T09:25:10.071Z,1604.00
2018-10-21T09:26:09.991Z,1596.00
2018-10-21T09:27:09.968Z,1636.00
2018-10-21T09:28:09.966Z,1640.00
2018-10-21T09:29:09.935Z,1656.00
2018-10-21T09:30:09.917Z,1668.00
2018-10-21T09:31:09.958Z,1688.00
2018-10-21T09:32:09.877Z,1696.00
2018-10-21T09:33:09.874Z,1696.00
2018-10-21T09:34:09.913Z,1696.00
2018-10-21T09:35:09.823Z,1704.00
2018-10-21T09:36:09.835Z,1720.00
2018-10-21T09:37:09.797Z,1740.00
2018-10-21T09:38:09.775Z,1744.00
2018-10-21T09:39:09.763Z,1732.00
2018-10-21T09:40:09.839Z,1748.00
2018-10-21T09:41:09.743Z,1768.00
2018-10-21T09:42:09.833Z,1800.00
2018-10-21T09:43:09.745Z,1816.00
2018-10-21T09:44:09.661Z,1848.00
2018-10-21T09:45:09.643Z,1860.00
2018-10-21T09:46:09.672Z,1872.00
2018-10-21T09:47:09.608Z,1896.00
2018-10-21T09:48:09.590Z,1940.00
2018-10-21T09:49:09.638Z,2024.00
2018-10-21T09:50:09.558Z,2092.00
2018-10-21T09:51:09.549Z,2240.00
2018-10-21T09:52:09.582Z,2412.00
2018-10-21T09:53:09.501Z,2532.00
2018-10-21T09:54:09.487Z,2612.00
2018-10-21T09:55:09.556Z,2624.00
2018-10-21T09:56:09.459Z,2464.00
2018-10-21T09:57:09.436Z,2184.00
2018-10-21T09:58:09.457Z,2012.00
2018-10-21T09:59:09.400Z,1928.00
2018-10-21T10:00:09.376Z,1928.00
2018-10-21T10:01:09.398Z,2012.00
2018-10-21T10:02:09.358Z,2148.00
2018-10-21T10:03:09.327Z,2456.00
2018-10-21T10:04:09.328Z,2364.00
2018-10-21T10:05:09.321Z,2160.00
2018-10-21T10:06:09.292Z,2152.00
2018-10-21T10:07:09.352Z,2168.00
2018-10-21T10:08:09.259Z,2208.00
2018-10-21T10:09:09.222Z,2260.00
2018-10-21T10:10:09.259Z,2280.00
2018-10-21T10:11:09.190Z,2260.00
2018-10-21T10:12:09.191Z,2280.00
2018-10-21T10:13:09.185Z,2192.00
2018-10-21T10:14:09.133Z,2280.00
2018-10-21T10:15:09.121Z,2636.00
2018-10-21T10:16:09.116Z,2888.00
2018-10-21T10:17:09.084Z,2928.00
2018-10-21T10:18:09.101Z,2796.00
2018-10-21T10:19:09.085Z,3620.00
2018-10-21T10:20:09.033Z,4048.00
2018-10-21T10:21:09.018Z,4144.00
2018-10-21T10:22:09.071Z,4380.00
2018-10-21T10:23:09.015Z,3216.00
2018-10-21T10:24:08.970Z,4268.00
2018-10-21T10:25:08.988Z,3764.00
2018-10-21T10:26:08.926Z,5384.00
2018-10-21T10:27:08.919Z,3992.00
2018-10-21T10:28:08.943Z,3748.00
2018-10-21T10:29:08.895Z,3984.00
2018-10-21T10:30:08.860Z,4668.00
2018-10-21T10:31:08.900Z,6332.00
2018-10-21T10:32:08.828Z,5296.00
2018-10-21T10:33:08.815Z,4856.00
2018-10-21T10:34:08.851Z,4912.00
2018-10-21T10:35:08.801Z,6748.00
2018-10-21T10:36:08.818Z,6528.00
2018-10-21T10:37:08.827Z,7624.00
2018-10-21T10:38:08.731Z,8128.00
2018-10-21T10:39:08.753Z,8520.00
2018-10-21T10:40:08.749Z,9364.00
2018-10-21T10:41:08.692Z,9980.00
2018-10-21T10:42:08.739Z,10176.00
2018-10-21T10:43:08.722Z,9228.00
2018-10-21T10:44:08.658Z,10080.00
2018-10-21T10:45:08.651Z,10096.00
2018-10-21T10:46:08.689Z,10072.00
2018-10-21T10:47:08.605Z,10144.00
2018-10-21T10:48:08.586Z,10096.00
2018-10-21T10:49:08.610Z,10176.00
2018-10-21T10:50:08.566Z,10204.00
2018-10-21T10:51:08.567Z,10104.00
2018-10-21T10:52:08.592Z,9964.00
2018-10-21T10:53:08.613Z,9988.00
2018-10-21T10:54:08.516Z,9768.00
2018-10-21T10:55:08.547Z,10036.00
2018-10-21T10:56:08.524Z,9948.00
2018-10-21T10:57:08.486Z,10136.00
2018-10-21T10:58:08.513Z,10104.00
2018-10-21T10:59:08.461Z,10068.00
2018-10-21T11:00:08.653Z,9916.00
2018-10-21T11:01:08.516Z,9884.00
2018-10-21T11:02:08.454Z,10004.00
2018-10-21T11:03:08.424Z,10276.00
2018-10-21T11:04:08.461Z,10272.00
2018-10-21T11:05:08.413Z,10320.00
2018-10-21T11:06:08.446Z,10160.00
2018-10-21T11:07:08.438Z,10264.00
2018-10-21T11:08:08.373Z,10128.00
2018-10-21T11:09:08.382Z,10084.00
2018-10-21T11:10:08.452Z,10448.00
2018-10-21T11:11:08.349Z,10392.00
2018-10-21T11:12:08.359Z,10480.00
2018-10-21T11:13:08.337Z,10412.00
2018-10-21T11:14:08.317Z,10408.00
2018-10-21T11:15:08.316Z,10424.00
2018-10-21T11:16:08.339Z,10416.00
2018-10-21T11:17:08.302Z,10076.00
2018-10-21T11:18:08.300Z,10192.00
2018-10-21T11:19:08.300Z,9984.00
2018-10-21T11:20:08.267Z,10148.00
2018-10-21T11:21:08.255Z,10128.00
2018-10-21T11:22:08.272Z,10176.00
2018-10-21T11:23:08.264Z,10172.00
2018-10-21T11:24:08.231Z,10172.00
2018-10-21T11:25:08.303Z,10188.00
2018-10-21T11:26:08.214Z,10244.00
2018-10-21T11:27:08.206Z,10396.00
2018-10-21T11:28:08.226Z,10164.00
2018-10-21T11:29:08.212Z,10336.00
2018-10-21T11:30:08.185Z,10480.00
2018-10-21T11:31:08.210Z,10244.00
2018-10-21T11:32:08.170Z,10308.00
2018-10-21T11:33:08.181Z,10364.00
2018-10-21T11:34:08.206Z,10476.00
2018-10-21T11:35:08.160Z,10500.00
2018-10-21T11:36:08.153Z,10412.00
2018-10-21T11:37:08.174Z,10312.00
2018-10-21T11:38:08.149Z,10344.00
2018-10-21T11:39:08.134Z,10296.00
2018-10-21T11:40:08.255Z,10292.00
2018-10-21T11:41:08.105Z,10372.00
2018-10-21T11:42:08.101Z,10416.00
2018-10-21T11:43:08.163Z,10532.00
2018-10-21T11:44:08.079Z,10544.00
2018-10-21T11:45:08.076Z,10708.00
2018-10-21T11:46:08.140Z,10456.00
2018-10-21T11:47:08.055Z,10220.00
2018-10-21T11:48:08.069Z,10232.00
2018-10-21T11:49:08.068Z,10312.00
2018-10-21T11:50:08.044Z,10436.00
2018-10-21T11:51:08.067Z,10308.00
2018-10-21T11:52:08.059Z,10316.00
2018-10-21T11:53:08.020Z,10200.00
2018-10-21T11:54:08.036Z,10224.00
2018-10-21T11:55:08.077Z,10152.00
2018-10-21T11:56:08.005Z,10096.00
2018-10-21T11:57:07.991Z,10024.00
2018-10-21T11:58:08.063Z,10248.00
2018-10-21T11:59:07.997Z,10156.00
2018-10-21T12:00:07.974Z,10048.00
2018-10-21T12:01:08.015Z,10056.00
2018-10-21T12:02:07.963Z,9996.00
2018-10-21T12:03:07.955Z,9968.00
2018-10-21T12:04:08.008Z,9828.00
2018-10-21T12:05:07.963Z,9608.00
2018-10-21T12:06:07.932Z,8952.00
2018-10-21T12:07:08.038Z,9320.00
2018-10-21T12:08:07.927Z,9408.00
2018-10-21T12:09:07.916Z,9396.00
2018-10-21T12:10:07.938Z,9568.00
2018-10-21T12:11:07.919Z,9596.00
2018-10-21T12:12:07.898Z,9660.00
2018-10-21T12:13:07.902Z,9548.00
2018-10-21T12:14:07.881Z,9528.00
2018-10-21T12:15:07.890Z,9548.00
2018-10-21T12:16:07.909Z,9468.00
2018-10-21T12:17:07.859Z,9436.00
2018-10-21T12:18:07.857Z,9368.00
2018-10-21T12:19:07.903Z,9548.00
2018-10-21T12:20:07.840Z,9672.00
2018-10-21T12:21:07.835Z,9728.00
2018-10-21T12:22:07.925Z,9752.00
2018-10-21T12:23:07.978Z,9688.00
2018-10-21T12:24:07.811Z,9472.00
2018-10-21T12:25:07.848Z,9472.00
2018-10-21T12:26:07.803Z,9104.00
2018-10-21T12:27:07.793Z,9200.00
2018-10-21T12:28:07.826Z,9132.00
2018-10-21T12:29:07.874Z,9020.00
2018-10-21T12:30:07.770Z,8940.00
2018-10-21T12:31:07.788Z,8696.00
2018-10-21T12:32:07.759Z,6620.00
2018-10-21T12:33:07.782Z,7256.00
2018-10-21T12:34:07.828Z,8728.00
2018-10-21T12:35:07.822Z,8720.00
2018-10-21T12:36:07.734Z,8580.00
2018-10-21T12:37:07.741Z,8600.00
2018-10-21T12:38:07.730Z,8532.00
2018-10-21T12:39:07.709Z,8380.00
2018-10-21T12:40:07.727Z,7852.00
2018-10-21T12:41:07.729Z,8236.00
2018-10-21T12:42:07.688Z,8248.00
2018-10-21T12:43:07.782Z,8284.00